»·PEaware :: VIPER17 KGEG-KPDX

VIPER17 :: KGEG-KPDX

FLIGHT INFORMATION

Flight Status: Arrived
Operator: Unknown
More flights by this operator :: More flights under this callsign
Pilot: Kevin M. (7)
Aircraft: GENERAL DYNAMICS F-16 FIGHTING FALCON
(F16)
More flights by this aircraft type
Origin: KGEG Spokane Intl
United States
Destination: KPDX Portland Intl
United States
More flights between these airports :: More routes between these airports
Route: +GEG6 PSC JORAD HHOOD4
File this flight plan on PilotEdge
Remarks:
Altitude:
(Current/Filed)
40,000ft
Speed:
(Current/Filed)
555kts
Departed: 13-Nov-19 02:19 PM
Arrived: 13-Nov-19 03:03 PM
Distance/Time
Traveled:
241nm/0:44
Distance/Time
To Go:
Arrived

Flight Plot

Page will automatically refresh every two minutes.

Flight plan parsing failed; only flown route is shown


Map Options




Map Legend


Flown Route
Filed Route
Departure Airport
Arrival Airport
Navaid (VOR, NDB)
Fix

Horizontal Profiles

Position Reports

Time Latitude Longitude Heading Altitude Ground
Speed
13-Nov-19 14:08 47.627494 -117.529706 312 2352ft 0kts
13-Nov-19 14:09 47.627494 -117.529706 312 2352ft 0kts
13-Nov-19 14:10 47.627494 -117.529706 312 2352ft 0kts
13-Nov-19 14:11 47.627494 -117.529706 312 2352ft 0kts
13-Nov-19 14:12 47.627213 -117.529666 146 2352ft 5kts
13-Nov-19 14:13 47.623283 -117.534247 226 2359ft 26kts
13-Nov-19 14:15 47.617193 -117.543463 222 2371ft 30kts
13-Nov-19 14:16 47.611858 -117.551478 223 2381ft 18kts
13-Nov-19 14:17 47.611351 -117.551655 150 2382ft 2kts
13-Nov-19 14:18 47.610812 -117.550927 133 2383ft 0kts
13-Nov-19 14:19 47.610813 -117.548970 44 2383ft 70kts
13-Nov-19 14:20 47.661024 -117.476676 51 9551ft 388kts
13-Nov-19 14:21 47.580585 -117.374648 198 22008ft 532kts
13-Nov-19 14:22 47.484896 -117.477026 230 40780ft 447kts
13-Nov-19 14:23 47.391716 -117.607040 229 40252ft 476kts
13-Nov-19 14:24 47.291183 -117.746154 229 40252ft 514kts
13-Nov-19 14:25 47.183876 -117.893764 229 40242ft 530kts
13-Nov-19 14:26 47.075551 -118.041944 229 40242ft 531kts
13-Nov-19 14:27 46.966563 -118.190184 228 40248ft 529kts
13-Nov-19 14:28 46.858496 -118.336302 227 40252ft 523kts
13-Nov-19 14:29 46.751054 -118.480749 227 40254ft 522kts
13-Nov-19 14:30 46.643235 -118.624888 227 40261ft 522kts
13-Nov-19 14:31 46.536669 -118.766554 226 40300ft 523kts
13-Nov-19 14:32 46.428870 -118.909076 225 40312ft 520kts
13-Nov-19 14:32 46.339779 -119.026250 224 40311ft 517kts
13-Nov-19 14:34 46.242030 -119.217584 249 40305ft 507kts
13-Nov-19 14:34 46.197385 -119.374985 249 40300ft 508kts
13-Nov-19 14:35 46.143518 -119.563725 249 40299ft 508kts
13-Nov-19 14:37 46.080061 -119.784216 248 40303ft 508kts
13-Nov-19 14:37 46.034586 -119.941014 248 40296ft 508kts
13-Nov-19 14:38 45.978928 -120.131598 248 40280ft 516kts
13-Nov-19 14:39 45.922711 -120.322607 248 40273ft 518kts
13-Nov-19 14:40 45.865313 -120.516131 248 38257ft 537kts
13-Nov-19 14:41 45.807389 -120.714781 249 35340ft 539kts
13-Nov-19 14:42 45.752224 -120.916296 249 32445ft 546kts
13-Nov-19 14:43 45.696057 -121.119731 248 29549ft 554kts
13-Nov-19 14:44 45.638261 -121.327171 248 26636ft 563kts
13-Nov-19 14:45 45.579642 -121.536579 248 23722ft 569kts
13-Nov-19 14:46 45.532257 -121.749926 266 20580ft 495kts
13-Nov-19 14:47 45.536256 -121.902710 273 11026ft 315kts
13-Nov-19 14:48 45.550674 -122.017091 287 9861ft 271kts
13-Nov-19 14:49 45.571021 -122.114529 287 9826ft 251kts
13-Nov-19 14:50 45.591036 -122.210902 287 9826ft 253kts
13-Nov-19 14:51 45.610998 -122.307411 287 9605ft 256kts
13-Nov-19 14:52 45.630977 -122.404108 288 8186ft 250kts
13-Nov-19 14:53 45.655163 -122.496471 298 6773ft 244kts
13-Nov-19 14:54 45.685667 -122.581664 298 5187ft 252kts
13-Nov-19 14:55 45.718039 -122.670221 298 3710ft 252kts
13-Nov-19 14:56 45.750387 -122.757910 298 2733ft 233kts
13-Nov-19 14:57 45.744766 -122.816113 199 2545ft 204kts
13-Nov-19 14:58 45.683261 -122.812908 145 2523ft 209kts
13-Nov-19 14:59 45.648892 -122.737391 118 1767ft 250kts
13-Nov-19 15:00 45.619747 -122.660064 116 1075ft 214kts
13-Nov-19 15:01 45.591185 -122.586339 118 25ft 129kts
13-Nov-19 15:02 45.586276 -122.576395 210 26ft 0kts
13-Nov-19 15:03 45.586228 -122.579135 296 26ft 10kts
13-Nov-19 15:04 45.586491 -122.581177 298 26ft 0kts
13-Nov-19 15:05 45.586491 -122.581177 298 26ft 0kts
13-Nov-19 15:06 45.586491 -122.581177 298 26ft 0kts
13-Nov-19 15:07 45.586491 -122.581177 298 26ft 0kts
13-Nov-19 15:08 45.586491 -122.581177 298 26ft 0kts

Navigation Log

Ident Type
Flight plan parsing failed, navigation log unavailable